Date,TemperatureHighF,TemperatureAvgF,TemperatureLowF,DewpointHighF,DewpointAvgF,DewpointLowF,HumidityHigh,HumidityAvg,HumidityLow,PressureMaxIn,PressureMinIn,WindSpeedMaxMPH,WindSpeedAvgMPH,GustSpeedMaxMPH,PrecipitationSumIn
2013-1-1,40.8,32.0,26.9,32.0,28.1,24.0,92,86,64,30.50,30.35,4,1,0,0.01
2013-1-2,44.9,32.7,26.9,33.0,26.7,23.0,93,80,45,30.35,30.19,1,0,0,0.00
2013-1-3,43.9,33.6,25.8,34.0,26.0,21.0,92,76,44,30.20,30.10,6,1,0,0.18
2013-1-4,48.6,42.1,35.9,44.0,39.4,34.0,94,90,82,30.31,30.16,6,1,0,0.10
2013-1-5,44.6,40.7,38.3,39.0,36.4,34.0,90,85,77,30.20,30.11,4,0,0,0.09
2013-1-6,44.8,41.4,38.8,40.0,38.0,36.0,91,87,80,30.19,29.99,11,2,0,0.14
2013-1-7,49.4,45.7,39.8,46.0,42.3,37.0,93,88,79,30.16,29.80,15,4,0,0.14
2013-1-8,53.3,46.9,41.6,49.0,43.1,39.0,94,86,75,30.16,29.74,15,3,0,0.48
2013-1-9,49.4,43.7,36.3,47.0,41.6,34.0,92,91,90,29.76,29.67,10,2,0,0.93
2013-1-20,35.2,30.6,28.4,34.0,27.9,-99.9,94,92,92,30.40,30.27,3,-11,0,0.00
2013-1-21,34.1,31.8,30.4,33.0,30.2,29.0,94,94,93,30.28,30.14,2,0,0,0.01
2013-1-22,38.2,32.5,28.7,36.0,30.7,27.0,94,92,89,30.15,29.91,3,0,0,0.00
2013-1-23,41.5,39.0,35.8,39.0,35.9,32.0,93,88,74,30.13,29.84,7,1,0,0.26
2013-1-24,45.8,41.2,35.3,39.0,37.0,32.0,92,85,66,30.21,30.05,5,1,0,0.18
2013-1-25,49.5,44.2,39.9,47.0,41.4,37.0,94,90,77,30.06,29.93,3,0,0,0.17
2013-1-26,45.4,41.5,39.2,40.0,37.6,37.0,92,86,74,30.03,29.89,12,2,0,0.11
2013-1-27,41.6,39.9,38.5,38.0,36.7,36.0,92,89,84,30.06,29.99,8,2,0,0.14
2013-1-28,41.5,39.9,37.8,40.0,37.9,36.0,93,92,91,30.09,30.00,10,1,0,0.35
2013-1-29,46.1,43.7,40.9,45.0,42.2,39.0,94,94,93,30.34,30.09,10,2,0,0.52
2013-1-30,47.7,46.2,43.6,46.0,44.7,42.0,95,94,93,30.38,30.32,10,2,0,0.15
2013-1-31,49.8,46.7,45.4,46.0,44.4,44.0,95,91,80,30.40,30.30,7,1,0,0.13
2013-2-1,50.2,45.2,39.8,46.0,42.2,36.0,94,89,76,30.41,30.33,3,0,0,0.02
2013-2-2,41.8,39.6,37.5,40.0,36.1,-99.9,94,92,91,30.39,30.26,3,1,0,0.00
2013-2-3,47.9,42.9,35.9,44.0,40.2,34.0,94,90,80,30.30,30.20,7,1,0,0.10
2013-2-4,50.4,45.6,42.8,43.0,41.1,40.0,92,84,70,30.21,29.88,4,1,0,0.01
2013-2-5,49.6,45.6,43.1,44.0,41.0,39.0,90,84,72,29.93,29.84,11,3,0,0.23
2013-2-6,51.0,44.8,42.3,40.0,39.1,37.0,88,81,62,30.05,29.79,13,2,0,0.07
2013-2-7,48.5,42.1,33.7,40.0,34.9,31.0,91,77,55,30.19,29.79,11,2,0,0.00
2013-2-8,44.6,38.4,32.8,37.0,33.9,31.0,94,84,68,30.31,30.19,2,0,0,0.01
2013-2-9,44.5,41.2,38.8,40.0,37.0,34.0,91,85,76,30.34,30.26,3,0,0,0.02
2013-2-10,46.7,40.7,36.3,39.0,36.0,34.0,93,84,62,30.38,30.32,4,1,0,0.00
2013-2-11,47.4,42.3,37.3,39.0,36.9,34.0,90,81,69,30.36,30.32,4,0,0,0.00
2013-2-12,48.9,46.2,42.6,46.0,42.8,38.0,92,88,81,30.40,30.29,14,2,0,0.05
2013-2-13,48.0,45.6,43.9,43.0,40.2,39.0,89,82,74,30.50,30.29,7,1,0,0.01
2013-2-14,48.9,45.0,41.8,43.0,41.1,38.0,91,86,77,30.55,30.50,9,1,0,0.05
2013-2-15,55.6,44.0,38.2,44.0,39.2,35.0,93,84,65,30.55,30.18,3,0,0,0.01
2013-2-16,52.2,43.9,37.3,42.0,39.2,34.0,93,84,60,30.20,30.11,15,2,0,0.22
2013-2-17,46.2,41.7,39.6,37.0,35.0,33.0,90,78,61,30.25,30.12,7,1,0,0.00
2013-2-18,45.7,40.7,36.6,38.0,34.9,33.0,90,80,64,30.12,29.76,4,0,0,0.00
2013-2-19,51.1,41.2,34.9,36.0,33.2,31.0,88,74,52,30.01,29.73,7,1,0,0.00
2013-2-20,45.5,39.2,34.1,38.0,34.7,31.0,90,84,67,30.05,29.99,5,1,0,0.07
2013-2-21,43.1,41.2,38.3,39.0,37.0,36.0,92,85,76,30.07,30.01,12,3,0,0.03
2013-2-22,44.5,41.5,38.6,41.0,37.4,32.0,90,85,76,30.06,29.70,18,5,0,0.32
2013-2-23,49.4,41.6,38.5,38.0,35.5,33.0,90,79,60,30.38,29.90,12,2,0,0.16
2013-2-24,47.1,43.3,38.9,37.0,34.8,32.0,86,72,62,30.39,29.95,12,3,0,0.02
2013-2-25,52.0,43.1,38.3,38.0,34.7,27.0,88,73,39,30.30,29.89,17,4,0,0.11
2013-2-26,48.0,42.7,37.2,35.0,32.1,30.0,83,67,50,30.36,30.20,9,2,0,0.01
2013-2-27,49.4,44.0,38.6,41.0,39.0,36.0,91,83,67,30.31,30.20,5,1,0,0.34
2013-2-28,51.6,46.5,41.6,50.0,44.6,40.0,94,93,90,30.32,30.19,8,1,0,0.22
2013-3-1,57.5,53.5,51.0,50.0,48.2,46.0,93,83,71,30.36,30.29,17,3,0,0.07
2013-3-2,56.5,49.3,37.3,48.0,43.3,35.0,91,80,66,30.29,30.07,10,2,0,0.45
2013-3-3,50.8,39.8,32.4,37.0,33.5,30.0,92,80,51,30.31,30.21,7,1,0,0.01
2013-3-4,55.1,41.0,28.5,34.0,27.7,23.0,94,64,31,30.31,29.92,7,1,0,0.00
2013-3-5,51.3,43.5,38.0,38.0,32.6,24.0,83,66,47,29.92,29.72,5,1,0,0.00
2013-3-6,44.3,35.6,37.5,41.0,19.2,-99.9,91,76,84,29.89,29.58,9,1,0,0.50
2013-3-7,52.5,24.0,37.0,43.0,-26.1,-99.9,90,43,59,30.09,29.90,5,1,0,0.00
2013-3-8,53.8,41.3,34.1,41.0,36.2,32.0,93,83,60,30.24,30.08,9,1,0,0.00
2013-3-9,55.0,41.5,30.4,41.0,34.1,29.0,95,77,44,30.50,30.25,4,1,0,0.01
2013-3-10,46.0,41.4,35.2,41.0,37.4,31.0,89,85,77,30.50,30.43,3,0,0,0.03
2013-3-11,51.3,45.6,40.2,44.0,41.0,38.0,93,84,69,30.45,30.17,5,0,0,0.04
2013-3-12,54.8,52.0,47.0,49.0,46.6,44.0,90,82,68,30.16,30.07,12,4,0,0.01
2013-3-13,52.6,51.1,49.8,50.0,47.9,46.0,92,88,83,30.21,30.10,12,2,0,0.24
2013-3-14,52.9,49.6,47.6,50.0,46.3,43.0,93,88,74,30.15,30.04,6,1,0,0.04
2013-3-15,59.0,51.8,47.7,49.0,46.7,44.0,92,83,65,30.21,30.14,11,2,0,0.00
2013-3-16,49.6,46.1,40.2,44.0,40.0,33.0,88,79,65,30.14,29.89,12,4,0,0.11
2013-3-17,49.1,42.1,38.3,35.0,33.3,31.0,84,72,55,30.20,29.98,9,3,0,0.00
2013-3-18,53.5,43.2,36.8,39.0,34.1,30.0,87,71,43,30.24,30.12,11,3,0,0.01
2013-3-19,56.7,42.1,33.4,40.0,34.5,28.0,91,77,33,30.23,29.60,9,1,0,0.26
2013-3-20,51.1,46.3,38.8,47.0,40.6,31.0,93,81,66,30.02,29.39,22,5,0,0.60
2013-3-21,49.4,39.8,35.5,38.0,33.5,30.0,91,79,55,30.22,30.03,9,2,0,0.08
2013-3-22,47.7,38.1,31.8,36.0,30.9,26.0,90,77,45,30.38,30.22,6,1,0,0.02
2013-3-23,50.7,39.1,30.7,33.0,27.8,21.0,91,67,35,30.40,30.31,6,1,0,0.00
2013-3-24,55.4,41.1,29.4,34.0,29.2,25.0,89,65,31,30.31,30.13,4,1,0,0.00
2013-3-25,62.3,47.9,32.9,34.0,29.1,25.0,76,51,27,30.13,29.93,8,1,0,0.00
2013-3-26,60.4,49.9,43.8,40.0,36.6,32.0,77,62,37,30.02,29.95,10,1,0,0.00
2013-3-27,56.2,48.7,43.5,47.0,41.2,37.0,88,76,56,29.99,29.93,5,0,0,0.01
2013-3-28,62.3,50.8,42.2,49.0,43.7,39.0,93,78,53,30.15,29.99,6,1,0,0.06
2013-3-29,64.7,52.4,42.8,49.0,43.2,40.0,91,73,44,30.25,30.15,6,1,0,0.02
2013-3-30,68.9,53.1,39.3,47.0,42.2,37.0,93,69,42,30.26,30.08,4,1,0,0.00
2013-3-31,69.9,54.9,41.3,47.0,42.6,38.0,91,66,40,30.07,29.91,8,1,0,0.00
2013-4-1,62.1,52.6,47.1,49.0,45.3,42.0,90,77,55,30.16,29.96,10,2,0,0.00
2013-4-2,55.1,51.4,47.7,47.0,45.5,44.0,90,80,70,30.20,30.16,5,1,0,0.00
2013-4-3,61.8,52.5,43.6,47.0,43.3,39.0,91,72,49,30.19,29.95,7,1,0,0.00
2013-4-4,55.0,51.9,48.6,53.0,48.8,45.0,94,89,81,29.95,29.65,10,1,0,0.33
2013-4-5,56.5,51.9,48.0,50.0,47.8,46.0,92,86,72,29.87,29.73,12,3,0,0.49
2013-4-6,51.7,47.5,44.5,46.0,43.3,40.0,92,85,73,29.94,29.71,13,3,0,0.41
2013-4-7,46.7,43.2,39.8,44.0,40.6,38.0,93,90,87,29.89,29.50,12,1,0,0.94
2013-4-8,54.7,46.7,41.8,45.0,41.7,39.0,92,83,63,30.28,29.90,5,1,0,0.06
2013-4-9,54.2,49.6,41.6,43.0,41.1,38.0,90,74,59,30.36,30.19,6,1,0,0.00
2013-4-10,58.6,52.0,47.9,50.0,43.8,40.0,91,74,60,30.26,29.94,11,3,0,0.21
2013-4-11,51.7,46.7,42.2,45.0,40.4,35.0,88,79,67,30.31,30.20,6,1,0,0.11
2013-4-12,47.0,42.2,39.1,42.0,37.9,34.0,92,84,68,30.20,29.67,19,2,0,0.17
2013-4-13,47.1,42.0,37.8,41.0,36.6,32.0,91,81,70,30.01,29.77,10,2,0,0.47
2013-4-14,55.3,44.4,38.2,41.0,36.8,32.0,93,77,44,30.02,29.92,9,1,0,0.01
2013-4-15,56.6,44.3,36.3,41.0,37.7,34.0,94,79,47,30.18,29.95,10,1,0,0.04
2013-4-16,55.1,43.0,35.0,43.0,37.5,34.0,95,82,54,30.40,30.18,5,1,0,0.08
2013-4-17,60.7,47.6,34.7,41.0,36.3,28.0,93,69,31,30.46,30.40,6,1,0,0.00
2013-4-18,50.8,47.1,42.9,47.0,41.4,37.0,91,80,69,30.46,30.22,8,2,0,0.17
2013-4-19,54.7,50.5,47.4,52.0,48.1,45.0,93,91,88,30.21,30.06,13,2,0,0.78
2013-4-20,54.2,49.1,45.7,48.0,44.5,42.0,93,84,73,30.28,30.20,11,3,0,0.17
2013-4-21,54.2,47.0,40.2,45.0,40.4,35.0,89,78,62,30.37,30.23,9,2,0,0.02
2013-4-22,61.6,47.5,35.2,42.0,33.6,24.0,93,63,24,30.52,30.38,6,1,0,0.00
2013-4-23,63.4,48.5,34.0,38.0,32.5,27.0,89,59,27,30.42,30.24,6,1,0,0.00
2013-4-24,70.4,53.7,37.6,41.0,36.5,31.0,91,58,24,30.33,30.07,6,1,0,0.00
2013-4-25,71.5,56.8,40.8,43.0,37.9,34.0,83,53,27,30.14,30.04,4,1,0,0.00
2013-4-26,67.8,56.5,45.8,50.0,45.4,42.0,90,68,42,30.25,30.14,7,1,0,0.00
2013-4-27,55.4,53.6,51.3,49.0,42.4,35.0,83,67,49,30.22,30.16,10,3,0,0.01
2013-4-28,59.3,51.4,47.3,48.0,43.4,38.0,88,75,52,30.22,29.97,11,2,0,0.03
2013-4-29,55.4,46.7,39.6,46.0,40.3,34.0,91,80,46,30.17,29.91,10,2,0,0.97
2013-4-30,56.5,44.2,35.6,40.0,34.7,28.0,93,72,37,30.45,30.18,6,1,0,0.09
2013-5-1,64.5,49.1,33.5,39.0,33.4,27.0,92,60,25,30.58,30.45,4,1,0,0.00
2013-5-2,69.3,54.2,40.3,45.0,39.3,35.0,88,60,34,30.55,30.38,5,1,0,0.00
2013-5-3,70.8,57.2,43.1,49.0,43.2,39.0,88,62,42,30.39,30.23,7,1,0,0.00
2013-5-4,77.0,61.9,45.4,52.0,43.7,38.0,89,56,26,30.24,30.00,7,1,0,0.00
2013-5-5,82.8,66.1,49.8,50.0,44.1,40.0,81,50,22,29.99,29.77,7,2,0,0.00
2013-5-6,84.9,75.7,60.5,49.0,44.4,40.0,57,34,22,29.84,29.74,6,2,0,0.00
2013-5-7,69.9,60.2,51.9,53.0,49.9,46.0,86,70,52,30.00,29.81,11,2,0,0.00
2013-5-8,65.2,56.1,51.0,52.0,49.2,47.0,88,78,60,30.15,30.01,5,1,0,0.00
2013-5-9,69.4,57.2,48.5,54.0,49.8,46.0,92,78,46,30.22,30.12,8,1,0,0.00
2013-5-10,78.5,63.1,48.2,56.0,51.0,46.0,94,68,35,30.20,30.11,6,1,0,0.00
2013-5-11,80.5,67.1,55.7,57.0,49.6,42.0,79,55,37,30.17,29.98,6,1,0,0.00
2013-5-12,70.6,63.1,57.3,57.0,55.4,52.0,90,77,55,30.10,30.02,7,2,0,0.31
2013-5-13,64.5,57.4,54.5,57.0,53.3,48.0,92,86,69,30.05,29.93,19,2,0,0.23
2013-5-14,64.2,57.4,49.1,41.0,35.4,-99.9,72,48,33,30.20,30.12,9,-21,0,0.00
2013-5-15,65.2,52.8,43.8,51.0,45.1,40.0,90,77,48,30.13,30.02,10,1,0,0.08
2013-5-16,70.4,60.1,52.3,53.0,50.0,45.0,92,72,42,30.02,29.86,9,2,0,0.01
2013-5-17,61.5,56.0,52.8,51.0,48.9,46.0,90,77,59,30.07,29.95,6,2,0,0.07
2013-5-18,60.7,55.5,51.3,48.0,45.8,44.0,84,71,55,30.27,30.07,5,1,0,0.00
2013-5-19,66.0,56.4,50.1,50.0,47.6,45.0,84,73,56,30.41,30.28,9,1,0,0.00
2013-5-20,67.3,55.4,45.4,51.0,46.8,43.0,93,75,44,30.36,29.91,7,1,0,0.00
2013-5-21,59.5,50.4,45.4,49.0,44.5,41.0,92,81,54,29.90,29.78,7,2,0,0.38
2013-5-22,53.9,47.1,43.1,46.0,43.0,41.0,91,86,71,29.95,29.86,7,2,0,0.15
2013-5-23,58.4,49.3,43.9,47.0,44.0,40.0,91,82,55,30.02,29.94,5,1,0,0.11
2013-5-24,63.5,53.4,45.8,48.0,44.6,42.0,91,74,47,30.06,29.98,7,1,0,0.01
2013-5-25,63.9,55.3,49.4,47.0,45.3,42.0,86,71,47,30.05,29.97,10,2,0,0.00
2013-5-26,64.7,55.7,49.1,54.0,49.4,45.0,89,80,62,29.99,29.94,8,1,0,0.06
2013-5-27,60.1,55.5,49.8,56.0,51.6,46.0,91,87,78,29.97,29.72,7,1,0,0.21
2013-5-28,62.1,55.5,51.3,52.0,49.4,47.0,91,80,62,29.89,29.77,7,1,0,0.05
2013-5-29,61.3,53.8,49.4,52.0,48.1,46.0,91,81,64,29.97,29.69,11,2,0,0.09
2013-5-30,63.4,54.7,47.9,48.0,45.0,42.0,85,71,48,30.25,29.98,11,3,0,0.00
2013-5-31,66.3,57.0,49.9,48.0,44.4,40.0,85,65,41,30.35,30.25,11,1,0,0.00
2013-6-1,72.7,60.2,49.2,50.0,46.3,42.0,83,62,35,30.25,30.05,7,1,0,0.00
2013-6-2,69.8,60.1,53.5,53.0,48.5,45.0,86,67,46,30.09,30.05,9,1,0,0.03
2013-6-3,70.8,60.0,50.4,53.0,49.4,47.0,88,70,45,30.13,30.06,9,2,0,0.00
2013-6-4,79.6,64.8,49.5,55.0,50.4,46.0,91,63,32,30.13,30.01,6,1,0,0.00
2013-6-5,77.4,64.9,52.8,57.0,51.4,45.0,85,63,42,30.09,30.02,7,1,0,0.00
2013-6-6,79.0,64.3,51.4,57.0,49.2,42.0,90,62,31,30.06,30.00,9,1,0,0.00
2013-6-7,69.3,61.3,55.6,55.0,47.2,41.0,74,61,41,30.15,30.02,6,1,0,0.01
2013-6-8,68.9,59.6,53.2,51.0,47.7,45.0,76,65,50,30.19,30.11,12,1,0,0.00
2013-6-9,68.1,58.4,50.5,50.0,46.2,43.0,84,65,45,30.12,30.02,7,1,0,0.00
2013-6-10,69.3,58.8,46.4,49.0,44.9,40.0,85,62,38,30.05,29.88,9,2,0,0.00
2013-6-11,66.4,58.1,50.1,48.0,44.5,43.0,78,62,44,30.11,29.94,10,3,0,0.00
2013-6-12,69.1,59.1,52.3,47.0,45.1,40.0,78,61,35,30.14,30.11,9,2,0,0.00
2013-6-29,84.0,77.1,68.3,62.0,56.8,-99.9,71,53,43,30.09,29.98,6,1,0,0.00
2013-6-30,90.5,76.1,61.2,66.0,61.2,56.0,90,63,39,30.01,29.83,9,2,0,0.00